首页
METAR-TAF:

METAR-TAF

机场 :

普尔曼-莫斯科区域机场

普尔曼 / 莫斯科, 华盛顿, 美国

纬度: 46-44-38N, 经度: 117-06-35W, 海拔: 779米

当前天气观测

该预报发布于34分钟前的00:53 UTC
风速7节,风向西转西南
温度 1°C
湿度 93%
气压 1024 hPa
能見度: 12.9公里
阴天层高于700英尺

METAR: KPUW 110053Z AUTO 24007KT 8SM OVC007 01/00 A3025 RMK AO2 SLP265 T00110000

时间: 17:27 (01:27 UTC)

预报

该预报发布于2小时和7分钟前的23:20 UTC
预报有效从11日的 00点(UTC)到 11日的 24点(UTC)
风速10节,风向西转西南
能見度: 9.7公里
阴天层高于1500英尺
轻雾, 附近有阵雨
从 11日的 0200点(UTC)
风速5节,风向南转南东
能見度: 4.8公里
阴天层高于700英尺
轻雾
从 11日的 1600点(UTC)
风速12节,风向东转东南
能見度: 2.4公里
阴天层高于1500英尺
小雪, 轻雾
从 11日的 2100点(UTC)
风速14节,风向东南,有时为17节阵风
能見度: 1.6公里
阴天层高于2000英尺
小雨, 轻雾

TAF: KPUW 102320Z 1100/1124 24010KT 6SM BR VCSH OVC015 FM110200 15005KT 3SM BR OVC007 FM111600 12012KT 1 1/2SM -SN BR OVC015 FM112100 14014G17KT 2SM -RA BR OVC020

超过4000个机场的气象观测和天气预报(METAR&TAF报告)。

可查询的气象台以黄色和红色小点在地图上表示。

将鼠标移到小点上方,可查看气象台名称。

然后点击查看天气观测和预报。

如需切换地图:点击带黑十字的绿色按钮放大地图;点击带横线的绿色按钮缩小地图;或者点击绿色箭头查看邻近地区的地图。


METAR-TAF: